createdAt,value
2024-04-18T00:01:03.978Z,98464.97
2024-04-18T00:03:31.834Z,98459.72
2024-04-18T00:05:58.859Z,98467.59
2024-04-18T00:08:25.660Z,98467.47
2024-04-18T00:10:55.318Z,98464.72
2024-04-18T00:13:22.051Z,98464.13
2024-04-18T00:15:48.890Z,98471.16
2024-04-18T00:18:15.764Z,98465.16
2024-04-18T00:20:42.558Z,98467.16
2024-04-18T00:23:09.355Z,98474.19
2024-04-18T00:25:36.124Z,98474.19
2024-04-18T00:28:02.952Z,98473.56
2024-04-18T00:30:29.763Z,98471.78
2024-04-18T00:32:56.602Z,98471.16
2024-04-18T00:35:23.341Z,98469.91
2024-04-18T00:37:50.197Z,98476.84
2024-04-18T00:40:16.994Z,98475.56
2024-04-18T00:42:43.769Z,98477.97
2024-04-18T00:45:10.701Z,98476.19
2024-04-18T00:47:38.170Z,98468.22
2024-04-18T00:50:08.695Z,98473.38
2024-04-18T00:52:35.665Z,98469.25
2024-04-18T00:55:04.558Z,98480.59
2024-04-18T00:57:33.559Z,98478.91
2024-04-18T01:00:00.799Z,98478.63
2024-04-18T01:02:28.866Z,98478.38
2024-04-18T01:04:55.966Z,98481.75
2024-04-18T01:07:22.939Z,98475.56
2024-04-18T01:09:51.309Z,98480.16
2024-04-18T01:12:18.142Z,98475.75
2024-04-18T01:14:45.001Z,98479.03
2024-04-18T01:17:12.284Z,98480.50
2024-04-18T01:19:39.781Z,98484.47
2024-04-18T01:22:06.571Z,98480.91
2024-04-18T01:24:33.738Z,98484.47
2024-04-18T01:27:00.844Z,98485.13
2024-04-18T01:29:28.311Z,98485.56
2024-04-18T01:31:55.210Z,98488.19
2024-04-18T01:34:22.099Z,98486.59
2024-04-18T01:36:49.811Z,98489.31
2024-04-18T01:39:16.963Z,98490.06
2024-04-18T01:41:43.823Z,98492.47
2024-04-18T01:44:11.867Z,98492.59
2024-04-18T01:46:38.732Z,98495.41
2024-04-18T01:49:05.691Z,98493.09
2024-04-18T01:51:32.536Z,98493.09
2024-04-18T01:53:59.263Z,98496.66
2024-04-18T01:56:26.009Z,98502.00
2024-04-18T01:58:52.784Z,98502.16
2024-04-18T02:01:24.679Z,98503.81
2024-04-18T02:03:52.095Z,98504.03
2024-04-18T02:06:19.061Z,98509.06
2024-04-18T02:08:45.985Z,98505.72
2024-04-18T02:11:12.972Z,98510.97
2024-04-18T02:13:39.933Z,98519.34
2024-04-18T02:16:06.738Z,98511.38
2024-04-18T02:18:33.730Z,98511.78
2024-04-18T02:21:00.719Z,98513.34
2024-04-18T02:23:27.756Z,98514.19
2024-04-18T02:25:54.575Z,98526.47
2024-04-18T02:28:21.653Z,98520.59
2024-04-18T02:30:48.575Z,98521.63
2024-04-18T02:33:17.504Z,98523.41
2024-04-18T02:35:44.781Z,98526.88
2024-04-18T02:38:11.803Z,98528.47
2024-04-18T02:40:38.746Z,98530.88
2024-04-18T02:43:05.545Z,98533.22
2024-04-18T02:45:32.477Z,98527.00
2024-04-18T02:47:59.435Z,98529.53
2024-04-18T02:50:26.223Z,98531.13
2024-04-18T02:52:53.074Z,98527.56
2024-04-18T02:55:19.849Z,98529.22
2024-04-18T02:57:46.818Z,98524.81
2024-04-18T03:00:13.960Z,98531.75
2024-04-18T03:02:40.786Z,98530.28
2024-04-18T03:05:07.579Z,98523.16
2024-04-18T03:07:34.399Z,98537.00
2024-04-18T03:10:01.165Z,98531.84
2024-04-18T03:12:28.449Z,98532.50
2024-04-18T03:14:55.518Z,98540.47
2024-04-18T03:17:22.339Z,98539.72
2024-04-18T03:19:49.112Z,98545.81
2024-04-18T03:22:17.511Z,98549.41
2024-04-18T03:24:44.414Z,98544.03
2024-04-18T03:27:11.249Z,98552.75
2024-04-18T03:29:38.034Z,98556.31
2024-04-18T03:32:05.430Z,98550.97
2024-04-18T03:34:32.397Z,98552.75
2024-04-18T03:36:59.221Z,98553.25
2024-04-18T03:39:29.489Z,98558.41
2024-04-18T03:41:56.271Z,98558.22
2024-04-18T03:44:23.161Z,98562.22
2024-04-18T03:46:49.927Z,98562.84
2024-04-18T03:49:16.767Z,98566.81
2024-04-18T03:51:43.563Z,98571.03
2024-04-18T03:54:10.461Z,98571.78
2024-04-18T03:56:37.197Z,98568.00
2024-04-18T03:59:04.136Z,98570.00
2024-04-18T04:01:31.253Z,98567.06
2024-04-18T04:03:58.569Z,98573.34
2024-04-18T04:06:25.610Z,98569.03
2024-04-18T04:08:52.556Z,98582.16
2024-04-18T04:11:19.860Z,98578.81
2024-04-18T04:13:47.012Z,98578.59
2024-04-18T04:16:13.953Z,98587.22
2024-04-18T04:18:41.017Z,98587.22
2024-04-18T04:21:09.043Z,98591.31
2024-04-18T04:23:37.631Z,98590.78
2024-04-18T04:26:04.587Z,98601.50
2024-04-18T04:28:31.328Z,98610.50
2024-04-18T04:30:58.153Z,98609.81
2024-04-18T04:33:28.755Z,98616.63
2024-04-18T04:35:56.126Z,98619.47
2024-04-18T04:38:22.962Z,98627.13
2024-04-18T04:40:49.719Z,98620.09
2024-04-18T04:43:16.604Z,98622.53
2024-04-18T04:45:43.355Z,98628.41
2024-04-18T04:48:10.207Z,98630.94
2024-04-18T04:50:42.058Z,98627.25
2024-04-18T04:53:09.025Z,98627.56
2024-04-18T04:55:35.811Z,98647.94
2024-04-18T04:58:03.165Z,98639.00
2024-04-18T05:00:30.073Z,98637.22
2024-04-18T05:02:57.032Z,98642.91
2024-04-18T05:05:23.907Z,98649.00
2024-04-18T05:07:54.828Z,98647.97
2024-04-18T05:10:22.321Z,98651.53
2024-04-18T05:12:50.567Z,98656.78
2024-04-18T05:15:17.785Z,98665.22
2024-04-18T05:17:44.686Z,98670.28
2024-04-18T05:20:12.243Z,98662.00
2024-04-18T05:22:39.032Z,98671.34
2024-04-18T05:25:06.157Z,98679.84
2024-04-18T05:27:33.960Z,98680.69
2024-04-18T05:30:19.377Z,98685.00
2024-04-18T05:32:46.428Z,98686.69
2024-04-18T05:35:13.923Z,98691.09
2024-04-18T05:37:40.755Z,98691.72
2024-04-18T05:40:08.289Z,98698.28
2024-04-18T05:42:35.063Z,98697.88
2024-04-18T05:45:01.974Z,98703.03
2024-04-18T05:47:29.397Z,98709.97
2024-04-18T05:49:57.822Z,98712.09
2024-04-18T05:52:24.582Z,98709.16
2024-04-18T05:54:51.602Z,98718.50
2024-04-18T05:57:18.453Z,98717.47
2024-04-18T05:59:45.258Z,98728.19
2024-04-18T06:02:13.734Z,98730.19
2024-04-18T06:04:40.728Z,98726.53
2024-04-18T06:07:07.579Z,98731.88
2024-04-18T06:09:34.326Z,98740.56
2024-04-18T06:12:01.081Z,98738.22
2024-04-18T06:14:27.817Z,98744.31
2024-04-18T06:16:54.683Z,98748.56
2024-04-18T06:19:21.429Z,98751.53
2024-04-18T06:21:48.172Z,98753.00
2024-04-18T06:24:16.347Z,98756.91
2024-04-18T06:26:43.091Z,98762.34
2024-04-18T06:29:11.565Z,98766.06
2024-04-18T06:31:38.316Z,98774.06
2024-04-18T06:34:05.807Z,98770.81
2024-04-18T06:36:33.009Z,98778.69
2024-04-18T06:39:00.406Z,98780.56
2024-04-18T06:41:27.221Z,98782.28
2024-04-18T06:43:53.938Z,98787.75
2024-04-18T06:46:21.240Z,98790.81
2024-04-18T06:48:48.170Z,98798.69
2024-04-18T06:51:15.088Z,98797.16
2024-04-18T06:53:41.913Z,98789.47
2024-04-18T06:56:08.721Z,98788.63
2024-04-18T06:58:35.506Z,98790.53
2024-04-18T07:01:02.477Z,98799.69
2024-04-18T07:03:29.486Z,98798.31
2024-04-18T07:05:56.368Z,98801.28
2024-04-18T07:08:25.597Z,98804.22
2024-04-18T07:10:53.230Z,98805.69
2024-04-18T07:13:20.901Z,98808.94
2024-04-18T07:15:47.727Z,98816.47
2024-04-18T07:18:14.608Z,98821.53
2024-04-18T07:20:41.461Z,98824.06
2024-04-18T07:23:08.300Z,98823.00
2024-04-18T07:25:38.564Z,98833.09
2024-04-18T07:28:05.399Z,98829.94
2024-04-18T07:30:32.851Z,98823.31
2024-04-18T07:32:59.858Z,98833.75
2024-04-18T07:35:26.865Z,98829.31
2024-04-18T07:37:53.665Z,98834.78
2024-04-18T07:40:22.591Z,98844.81
2024-04-18T07:42:52.887Z,98841.31
2024-04-18T07:45:20.175Z,98843.63
2024-04-18T07:47:47.296Z,98846.59
2024-04-18T07:50:14.494Z,98848.91
2024-04-18T07:52:44.983Z,98856.56
2024-04-18T07:55:17.199Z,98854.53
2024-04-18T07:57:44.586Z,98847.53
2024-04-18T08:00:12.791Z,98852.59
2024-04-18T08:02:42.122Z,98848.19
2024-04-18T08:05:11.680Z,98852.13
2024-04-18T08:07:42.252Z,98860.28
2024-04-18T08:10:13.809Z,98862.78
2024-04-18T08:12:45.740Z,98863.06
2024-04-18T08:15:18.119Z,98873.22
2024-04-18T08:17:47.803Z,98867.69
2024-04-18T08:20:14.738Z,98873.78
2024-04-18T08:22:41.647Z,98883.59
2024-04-18T08:25:08.832Z,98880.59
2024-04-18T08:27:36.752Z,98888.09
2024-04-18T08:30:04.512Z,98884.38
2024-04-18T08:32:31.399Z,98883.41
2024-04-18T08:34:58.226Z,98901.88
2024-04-18T08:37:24.984Z,98898.91
2024-04-18T08:39:51.789Z,98898.69
2024-04-18T08:42:27.477Z,98902.00
2024-04-18T08:44:57.307Z,98902.41
2024-04-18T08:47:28.432Z,98901.63
2024-04-18T08:49:55.750Z,98902.19
2024-04-18T08:52:23.076Z,98902.63
2024-04-18T08:54:50.004Z,98900.50
2024-04-18T08:57:22.616Z,98907.13
2024-04-18T08:59:55.219Z,98909.25
2024-04-18T09:02:22.067Z,98907.66
2024-04-18T09:04:48.993Z,98914.47
2024-04-18T09:07:15.805Z,98924.06
2024-04-18T09:09:42.572Z,98923.38
2024-04-18T09:12:09.467Z,98926.34
2024-04-18T09:14:36.324Z,98916.94
2024-04-18T09:17:03.056Z,98920.66
2024-04-18T09:19:29.843Z,98919.66
2024-04-18T09:22:00.439Z,98924.50
2024-04-18T09:24:27.546Z,98924.31
2024-04-18T09:26:54.293Z,98921.75
2024-04-18T09:29:22.653Z,98928.28
2024-04-18T09:31:49.827Z,98922.56
2024-04-18T09:34:19.729Z,98924.28
2024-04-18T09:36:47.051Z,98918.72
2024-04-18T09:39:27.627Z,98917.84
2024-04-18T09:42:02.316Z,98913.41
2024-04-18T09:44:32.187Z,98912.91
2024-04-18T09:47:00.182Z,98905.72
2024-04-18T09:49:28.392Z,98912.19
2024-04-18T09:51:57.091Z,98905.59
2024-04-18T09:54:24.294Z,98911.72
2024-04-18T09:56:53.196Z,98912.91
2024-04-18T09:59:22.163Z,98915.31
2024-04-18T10:01:50.242Z,98918.06
2024-04-18T10:04:17.195Z,98916.91
2024-04-18T10:06:47.554Z,98926.25
2024-04-18T10:09:17.005Z,98924.06
2024-04-18T10:11:44.341Z,98928.50
2024-04-18T10:14:11.223Z,98935.13
2024-04-18T10:16:56.217Z,98938.34
2024-04-18T10:19:30.674Z,98939.06
2024-04-18T10:24:36.614Z,98934.75
2024-04-18T10:27:09.034Z,98933.06
2024-04-18T10:29:36.098Z,98938.72
2024-04-18T10:32:05.980Z,98938.63
2024-04-18T10:34:34.222Z,98946.09
2024-04-18T10:37:09.554Z,98937.97
2024-04-18T10:39:41.951Z,98939.06
2024-04-18T10:42:10.058Z,98929.34
2024-04-18T10:44:38.070Z,98926.94
2024-04-18T10:47:08.664Z,98935.91
2024-04-18T10:49:35.742Z,98940.59
2024-04-18T10:52:02.702Z,98939.88
2024-04-18T10:54:29.480Z,98934.88
2024-04-18T10:56:56.656Z,98949.88
2024-04-18T10:59:23.534Z,98947.53
2024-04-18T11:01:50.424Z,98956.44
2024-04-18T11:04:17.220Z,98946.56
2024-04-18T11:06:45.310Z,98955.72
2024-04-18T11:09:12.219Z,98950.94
2024-04-18T11:11:39.843Z,98950.16
2024-04-18T11:14:08.061Z,98945.09
2024-04-18T11:16:36.243Z,98943.47
2024-04-18T11:19:03.421Z,98940.03
2024-04-18T11:21:30.727Z,98937.41
2024-04-18T11:23:58.214Z,98941.25
2024-04-18T11:26:29.522Z,98944.00
2024-04-18T11:28:57.976Z,98938.59
2024-04-18T11:31:24.920Z,98937.78
2024-04-18T11:33:52.443Z,98934.94
2024-04-18T11:36:20.212Z,98925.94
2024-04-18T11:38:48.245Z,98918.38
2024-04-18T11:41:15.176Z,98915.41
2024-04-18T11:43:42.503Z,98914.81
2024-04-18T11:46:09.367Z,98916.53
2024-04-18T11:48:36.804Z,98911.06
2024-04-18T11:51:04.076Z,98915.09
2024-04-18T11:53:31.725Z,98901.78
2024-04-18T11:55:59.999Z,98907.56
2024-04-18T11:58:27.526Z,98909.88
2024-04-18T12:00:54.299Z,98903.34
2024-04-18T12:03:21.509Z,98900.25
2024-04-18T12:05:48.364Z,98897.66
2024-04-18T12:08:15.106Z,98897.00
2024-04-18T12:10:41.861Z,98900.94
2024-04-18T12:13:08.684Z,98903.38
2024-04-18T12:15:35.651Z,98906.91
2024-04-18T12:18:03.882Z,98907.16
2024-04-18T12:20:30.770Z,98899.53
2024-04-18T12:22:57.512Z,98898.06
2024-04-18T12:25:24.374Z,98901.41
2024-04-18T12:27:51.243Z,98894.59
2024-04-18T12:30:18.103Z,98890.56
2024-04-18T12:32:45.049Z,98903.13
2024-04-18T12:35:12.045Z,98894.56
2024-04-18T12:37:38.786Z,98896.13
2024-04-18T12:40:06.668Z,98901.78
2024-04-18T12:42:35.242Z,98908.94
2024-04-18T12:45:02.286Z,98917.66
2024-04-18T12:47:29.691Z,98916.41
2024-04-18T12:49:56.759Z,98918.50
2024-04-18T12:52:23.731Z,98916.88
2024-04-18T12:54:50.595Z,98916.44
2024-04-18T12:57:17.442Z,98916.31
2024-04-18T12:59:44.556Z,98911.81
2024-04-18T13:02:13.205Z,98915.50
2024-04-18T13:04:40.143Z,98909.72
2024-04-18T13:07:07.323Z,98909.41
2024-04-18T13:09:34.550Z,98908.81
2024-04-18T13:12:05.670Z,98905.63
2024-04-18T13:14:32.596Z,98909.75
2024-04-18T13:16:59.436Z,98898.34
2024-04-18T13:19:26.221Z,98896.31
2024-04-18T13:21:53.656Z,98899.47
2024-04-18T13:24:24.009Z,98898.22
2024-04-18T13:26:51.479Z,98901.34
2024-04-18T13:29:19.063Z,98899.56
2024-04-18T13:31:49.052Z,98903.94
2024-04-18T13:34:15.822Z,98903.94
2024-04-18T13:36:42.716Z,98909.03
2024-04-18T13:39:10.100Z,98916.81
2024-04-18T13:41:42.212Z,98914.59
2024-04-18T13:44:08.957Z,98909.09
2024-04-18T13:46:36.077Z,98915.47
2024-04-18T13:49:03.030Z,98907.38
2024-04-18T13:51:30.037Z,98912.31
2024-04-18T13:53:57.527Z,98915.59
2024-04-18T13:56:24.742Z,98910.25
2024-04-18T13:58:51.570Z,98908.25
2024-04-18T14:01:18.328Z,98906.25
2024-04-18T14:03:45.183Z,98910.78
2024-04-18T14:06:12.034Z,98907.66
2024-04-18T14:08:42.650Z,98905.16
2024-04-18T14:11:09.545Z,98904.53
2024-04-18T14:13:36.473Z,98899.78
2024-04-18T14:16:22.215Z,98912.44
2024-04-18T14:18:52.202Z,98903.72
2024-04-18T14:21:19.818Z,98896.88
2024-04-18T14:23:46.660Z,98901.19
2024-04-18T14:26:13.429Z,98893.44
2024-04-18T14:28:40.203Z,98882.72
2024-04-18T14:31:06.953Z,98880.13
2024-04-18T14:33:33.880Z,98886.94
2024-04-18T14:36:00.730Z,98883.38
2024-04-18T14:38:27.703Z,98893.66
2024-04-18T14:41:02.083Z,98888.44
2024-04-18T14:43:36.541Z,98899.00
2024-04-18T14:46:03.428Z,98891.03
2024-04-18T14:48:30.218Z,98890.56
2024-04-18T14:50:57.005Z,98889.72
2024-04-18T14:53:26.795Z,98894.00
2024-04-18T14:55:54.439Z,98892.09
2024-04-18T14:58:21.179Z,98898.03
2024-04-18T15:00:52.484Z,98896.69
2024-04-18T15:03:20.267Z,98895.50
2024-04-18T15:05:55.928Z,98891.41
2024-04-18T15:08:23.327Z,98895.34
2024-04-18T15:10:50.263Z,98904.72
2024-04-18T15:13:17.148Z,98918.66
2024-04-18T15:15:44.784Z,98926.22
2024-04-18T15:18:15.064Z,98933.63
2024-04-18T15:20:42.130Z,98933.09
2024-04-18T15:23:09.961Z,98938.06
2024-04-18T15:25:36.964Z,98937.47
2024-04-18T15:28:03.925Z,98932.34
2024-04-18T15:30:30.838Z,98929.38
2024-04-18T15:32:57.746Z,98935.31
2024-04-18T15:35:24.566Z,98939.38
2024-04-18T15:37:51.357Z,98937.88
2024-04-18T15:40:19.021Z,98935.88
2024-04-18T15:42:45.860Z,98932.81
2024-04-18T15:45:12.739Z,98940.78
2024-04-18T15:47:39.697Z,98940.31
2024-04-18T15:50:06.745Z,98937.81
2024-04-18T15:52:34.902Z,98937.81
2024-04-18T15:55:12.304Z,98928.34
2024-04-18T15:57:43.286Z,98928.31
2024-04-18T16:00:11.233Z,98926.91
2024-04-18T16:02:38.309Z,98935.03
2024-04-18T16:05:05.688Z,98926.78
2024-04-18T16:07:32.603Z,98928.31
2024-04-18T16:09:59.733Z,98933.06
2024-04-18T16:12:26.927Z,98930.72
2024-04-18T16:14:53.856Z,98932.41
2024-04-18T16:17:20.689Z,98942.59
2024-04-18T16:19:49.670Z,98945.50
2024-04-18T16:22:16.848Z,98948.75
2024-04-18T16:24:43.702Z,98947.72
2024-04-18T16:27:10.584Z,98946.09
2024-04-18T16:29:37.327Z,98941.94
2024-04-18T16:32:04.360Z,98948.50
2024-04-18T16:34:31.105Z,98952.09
2024-04-18T16:37:09.234Z,98944.75
2024-04-18T16:39:40.070Z,98943.94
2024-04-18T16:42:07.619Z,98934.72
2024-04-18T16:44:34.552Z,98937.91
2024-04-18T16:47:01.379Z,98940.44
2024-04-18T16:49:28.653Z,98940.97
2024-04-18T16:51:55.573Z,98937.06
2024-04-18T16:54:22.464Z,98939.53
2024-04-18T16:56:49.318Z,98931.72
2024-04-18T16:59:16.358Z,98935.91
2024-04-18T17:01:43.153Z,98932.25
2024-04-18T17:04:10.004Z,98937.13
2024-04-18T17:06:45.473Z,98940.63
2024-04-18T17:09:15.833Z,98932.41
2024-04-18T17:11:42.785Z,98943.41
2024-04-18T17:14:09.842Z,98946.50
2024-04-18T17:16:36.720Z,98945.53
2024-04-18T17:19:04.188Z,98956.00
2024-04-18T17:21:31.305Z,98954.69
2024-04-18T17:23:58.296Z,98954.69
2024-04-18T17:26:27.445Z,98953.06
2024-04-18T17:28:55.775Z,98961.44
2024-04-18T17:31:22.694Z,98961.41
2024-04-18T17:33:49.487Z,98961.41
2024-04-18T17:36:16.374Z,98966.81
2024-04-18T17:38:44.340Z,98968.03
2024-04-18T17:41:11.163Z,98964.53
2024-04-18T17:43:37.994Z,98962.03
2024-04-18T17:46:05.366Z,98964.47
2024-04-18T17:48:32.457Z,98958.81
2024-04-18T17:50:59.343Z,98965.44
2024-04-18T17:53:26.236Z,98967.72
2024-04-18T17:55:54.880Z,98960.25
2024-04-18T17:58:22.296Z,98961.97
2024-04-18T18:00:49.673Z,98971.06
2024-04-18T18:03:16.712Z,98975.16
2024-04-18T18:05:43.811Z,98977.56
2024-04-18T18:08:10.663Z,98976.09
2024-04-18T18:10:37.755Z,98982.81
2024-04-18T18:13:04.856Z,98987.88
2024-04-18T18:15:31.999Z,98984.84
2024-04-18T18:17:59.459Z,98984.00
2024-04-18T18:20:26.348Z,98990.25
2024-04-18T18:22:53.199Z,98989.97
2024-04-18T18:25:20.009Z,98990.59
2024-04-18T18:27:46.879Z,98993.53
2024-04-18T18:30:14.829Z,98987.75
2024-04-18T18:32:41.979Z,98996.88
2024-04-18T18:35:09.730Z,98998.38
2024-04-18T18:37:36.778Z,98998.00
2024-04-18T18:40:03.920Z,98998.44
2024-04-18T18:42:30.853Z,99000.59
2024-04-18T18:44:57.707Z,98994.06
2024-04-18T18:47:24.576Z,99003.19
2024-04-18T18:49:51.426Z,99002.69
2024-04-18T18:52:19.707Z,98998.66
2024-04-18T18:54:46.627Z,98999.25
2024-04-18T18:57:13.557Z,99003.97
2024-04-18T18:59:43.919Z,99003.47
2024-04-18T19:02:10.903Z,99004.75
2024-04-18T19:04:37.812Z,99015.56
2024-04-18T19:07:04.868Z,99007.09
2024-04-18T19:09:32.906Z,99010.06
2024-04-18T19:11:59.863Z,99005.03
2024-04-18T19:14:28.131Z,99003.53
2024-04-18T19:16:55.249Z,99009.91
2024-04-18T19:19:24.304Z,99000.63
2024-04-18T19:21:51.251Z,99010.44
2024-04-18T19:24:18.228Z,99010.13
2024-04-18T19:26:44.980Z,99010.53
2024-04-18T19:29:14.231Z,99015.53
2024-04-18T19:31:40.992Z,99018.16
2024-04-18T19:34:07.825Z,99015.22
2024-04-18T19:36:34.710Z,99016.38
2024-04-18T19:39:01.494Z,99011.19
2024-04-18T19:41:28.307Z,99013.31
2024-04-18T19:43:55.583Z,99011.28
2024-04-18T19:46:28.155Z,99010.94
2024-04-18T19:48:56.144Z,99011.38
2024-04-18T19:51:23.293Z,99010.75
2024-04-18T19:53:50.047Z,99005.78
2024-04-18T19:56:16.911Z,98999.25
2024-04-18T19:58:43.795Z,98996.16
2024-04-18T20:01:10.532Z,98997.31
2024-04-18T20:03:37.451Z,99000.25
2024-04-18T20:06:04.861Z,98994.44
2024-04-18T20:08:31.758Z,98990.44
2024-04-18T20:10:58.513Z,99000.53
2024-04-18T20:13:25.301Z,98992.91
2024-04-18T20:15:52.034Z,98994.16
2024-04-18T20:18:18.957Z,98996.66
2024-04-18T20:20:48.094Z,98993.47
2024-04-18T20:23:15.344Z,98984.38
2024-04-18T20:25:42.465Z,98992.69
2024-04-18T20:28:09.248Z,98991.28
2024-04-18T20:30:36.083Z,98990.66
2024-04-18T20:33:02.882Z,98994.53
2024-04-18T20:35:32.550Z,98991.97
2024-04-18T20:37:59.414Z,98999.88
2024-04-18T20:40:26.177Z,98997.63
2024-04-18T20:42:53.009Z,98996.16
2024-04-18T20:45:19.799Z,99000.09
2024-04-18T20:47:46.733Z,98995.97
2024-04-18T20:50:13.663Z,98992.41
2024-04-18T20:52:40.440Z,98992.78
2024-04-18T20:55:07.503Z,98995.41
2024-04-18T20:57:34.322Z,98995.81
2024-04-18T21:00:01.092Z,99001.25
2024-04-18T21:02:28.426Z,98990.75
2024-04-18T21:04:55.372Z,98989.06
2024-04-18T21:07:23.447Z,98989.06
2024-04-18T21:09:50.277Z,98986.44
2024-04-18T21:12:17.507Z,98977.78
2024-04-18T21:14:44.478Z,98982.09
2024-04-18T21:17:11.275Z,98981.56
2024-04-18T21:19:38.260Z,98984.25
2024-04-18T21:22:06.853Z,98976.47
2024-04-18T21:24:33.741Z,98976.59
2024-04-18T21:27:00.622Z,98969.72
2024-04-18T21:29:27.508Z,98970.88
2024-04-18T21:31:54.231Z,98968.31
2024-04-18T21:34:21.002Z,98966.94
2024-04-18T21:36:47.820Z,98955.66
2024-04-18T21:39:14.805Z,98959.31
2024-04-18T21:41:43.027Z,98962.03
2024-04-18T21:44:10.589Z,98959.50
2024-04-18T21:46:37.413Z,98964.13
2024-04-18T21:49:04.329Z,98964.13
2024-04-18T21:51:31.364Z,98960.72
2024-04-18T21:53:58.177Z,98966.75
2024-04-18T21:56:25.029Z,98963.34
2024-04-18T21:58:53.572Z,98961.03
2024-04-18T22:01:20.462Z,98962.13
2024-04-18T22:03:47.368Z,98965.03
2024-04-18T22:06:14.292Z,98954.72
2024-04-18T22:08:41.063Z,98964.47
2024-04-18T22:11:07.876Z,98957.91
2024-04-18T22:13:34.627Z,98960.06
2024-04-18T22:16:01.398Z,98954.88
2024-04-18T22:18:28.370Z,98962.97
2024-04-18T22:20:57.744Z,98955.19
2024-04-18T22:23:24.627Z,98953.56
2024-04-18T22:25:51.593Z,98953.75
2024-04-18T22:28:18.384Z,98952.06
2024-04-18T22:30:45.381Z,98945.22
2024-04-18T22:33:12.251Z,98947.94
2024-04-18T22:35:40.351Z,98941.94
2024-04-18T22:38:07.207Z,98938.53
2024-04-18T22:40:34.107Z,98930.78
2024-04-18T22:43:02.554Z,98923.34
2024-04-18T22:45:29.402Z,98934.03
2024-04-18T22:47:56.915Z,98927.94
2024-04-18T22:50:23.844Z,98927.09
2024-04-18T22:52:50.706Z,98932.34
2024-04-18T22:55:17.594Z,98932.34
2024-04-18T22:57:44.527Z,98928.03
2024-04-18T23:00:11.995Z,98928.03
2024-04-18T23:02:38.800Z,98924.66
2024-04-18T23:05:05.888Z,98928.22
2024-04-18T23:07:32.772Z,98926.34
2024-04-18T23:10:00.621Z,98923.88
2024-04-18T23:12:27.534Z,98923.03
2024-04-18T23:14:54.334Z,98920.53
2024-04-18T23:17:21.198Z,98916.22
2024-04-18T23:19:48.056Z,98912.75
2024-04-18T23:22:14.844Z,98910.13
2024-04-18T23:24:41.763Z,98908.16
2024-04-18T23:27:09.049Z,98908.06
2024-04-18T23:29:35.957Z,98908.81
2024-04-18T23:32:02.751Z,98904.50
2024-04-18T23:34:29.522Z,98901.81
2024-04-18T23:36:56.281Z,98905.34
2024-04-18T23:39:23.127Z,98899.91
2024-04-18T23:41:50.193Z,98898.97
2024-04-18T23:44:17.053Z,98900.47
2024-04-18T23:46:43.962Z,98888.03
2024-04-18T23:49:10.860Z,98886.25
2024-04-18T23:51:37.834Z,98886.03
2024-04-18T23:54:04.604Z,98889.44
2024-04-18T23:56:31.449Z,98879.78
2024-04-18T23:58:59.345Z,98879.88
